sensor_id;sensor_type;location;lat;lon;timestamp;P1;durP1;ratioP1;P2;durP2;ratioP2
60704;SDS011;46545;38.014;-7.874;2023-02-26T00:00:17;6.18;;;1.00;;
60704;SDS011;46545;38.014;-7.874;2023-02-26T00:02:20;2.20;;;0.80;;
60704;SDS011;46545;38.014;-7.874;2023-02-26T00:04:20;3.58;;;0.80;;
60704;SDS011;46545;38.014;-7.874;2023-02-26T00:06:21;2.33;;;0.60;;
60704;SDS011;46545;38.014;-7.874;2023-02-26T00:08:22;3.67;;;0.82;;
60704;SDS011;46545;38.014;-7.874;2023-02-26T00:10:22;0.93;;;0.63;;
60704;SDS011;46545;38.014;-7.874;2023-02-26T00:12:23;5.10;;;0.70;;
60704;SDS011;46545;38.014;-7.874;2023-02-26T00:14:24;3.95;;;1.08;;
60704;SDS011;46545;38.014;-7.874;2023-02-26T00:18:28;3.47;;;0.80;;
60704;SDS011;46545;38.014;-7.874;2023-02-26T00:20:28;3.90;;;1.00;;
60704;SDS011;46545;38.014;-7.874;2023-02-26T00:22:29;1.15;;;0.68;;
60704;SDS011;46545;38.014;-7.874;2023-02-26T00:24:30;4.78;;;0.60;;
60704;SDS011;46545;38.014;-7.874;2023-02-26T00:26:31;3.15;;;0.70;;
60704;SDS011;46545;38.014;-7.874;2023-02-26T00:28:31;2.65;;;0.93;;
60704;SDS011;46545;38.014;-7.874;2023-02-26T00:30:32;6.25;;;1.33;;
60704;SDS011;46545;38.014;-7.874;2023-02-26T00:32:33;2.55;;;1.40;;
60704;SDS011;46545;38.014;-7.874;2023-02-26T00:34:34;1.85;;;0.70;;
60704;SDS011;46545;38.014;-7.874;2023-02-26T00:38:35;5.85;;;1.08;;
60704;SDS011;46545;38.014;-7.874;2023-02-26T00:42:37;7.95;;;1.30;;
60704;SDS011;46545;38.014;-7.874;2023-02-26T00:44:38;3.72;;;1.08;;
60704;SDS011;46545;38.014;-7.874;2023-02-26T00:55:10;10.27;;;3.05;;
60704;SDS011;46545;38.014;-7.874;2023-02-26T00:57:11;9.32;;;2.38;;
60704;SDS011;46545;38.014;-7.874;2023-02-26T00:59:11;5.47;;;2.20;;
60704;SDS011;46545;38.014;-7.874;2023-02-26T01:01:12;9.85;;;3.42;;
60704;SDS011;46545;38.014;-7.874;2023-02-26T01:03:12;10.50;;;4.35;;
60704;SDS011;46545;38.014;-7.874;2023-02-26T01:05:13;12.60;;;3.88;;
60704;SDS011;46545;38.014;-7.874;2023-02-26T01:07:14;11.52;;;4.30;;
60704;SDS011;46545;38.014;-7.874;2023-02-26T01:11:24;11.25;;;3.72;;
60704;SDS011;46545;38.014;-7.874;2023-02-26T01:13:25;9.90;;;3.92;;
60704;SDS011;46545;38.014;-7.874;2023-02-26T01:15:25;5.72;;;1.77;;
60704;SDS011;46545;38.014;-7.874;2023-02-26T01:21:52;2.30;;;0.93;;
60704;SDS011;46545;38.014;-7.874;2023-02-26T01:25:57;10.25;;;2.30;;
60704;SDS011;46545;38.014;-7.874;2023-02-26T01:27:58;4.53;;;1.00;;
60704;SDS011;46545;38.014;-7.874;2023-02-26T01:29:59;5.82;;;1.30;;
60704;SDS011;46545;38.014;-7.874;2023-02-26T01:32:07;4.18;;;1.10;;
60704;SDS011;46545;38.014;-7.874;2023-02-26T01:34:17;5.65;;;1.25;;
60704;SDS011;46545;38.014;-7.874;2023-02-26T01:36:20;6.57;;;1.30;;
60704;SDS011;46545;38.014;-7.874;2023-02-26T01:40:51;7.35;;;1.23;;
60704;SDS011;46545;38.014;-7.874;2023-02-26T01:42:56;4.03;;;1.38;;
60704;SDS011;46545;38.014;-7.874;2023-02-26T01:49:20;7.95;;;1.25;;
60704;SDS011;46545;38.014;-7.874;2023-02-26T01:51:39;1.90;;;0.95;;
60704;SDS011;46545;38.014;-7.874;2023-02-26T01:53:40;3.40;;;1.70;;
60704;SDS011;46545;38.014;-7.874;2023-02-26T01:55:41;0.82;;;0.65;;
60704;SDS011;46545;38.014;-7.874;2023-02-26T01:57:44;8.25;;;1.10;;
60704;SDS011;46545;38.014;-7.874;2023-02-26T01:59:45;3.78;;;0.70;;
60704;SDS011;46545;38.014;-7.874;2023-02-26T02:01:46;6.00;;;1.20;;
60704;SDS011;46545;38.014;-7.874;2023-02-26T02:03:47;4.63;;;1.40;;
60704;SDS011;46545;38.014;-7.874;2023-02-26T02:05:50;4.40;;;1.10;;
60704;SDS011;46545;38.014;-7.874;2023-02-26T02:07:51;1.60;;;0.90;;
60704;SDS011;46545;38.014;-7.874;2023-02-26T02:09:51;5.15;;;1.55;;
60704;SDS011;46545;38.014;-7.874;2023-02-26T02:14:03;6.50;;;1.02;;
60704;SDS011;46545;38.014;-7.874;2023-02-26T02:16:16;6.43;;;0.98;;
60704;SDS011;46545;38.014;-7.874;2023-02-26T02:27:22;4.32;;;0.80;;
60704;SDS011;46545;38.014;-7.874;2023-02-26T02:29:37;4.72;;;1.13;;
60704;SDS011;46545;38.014;-7.874;2023-02-26T02:31:52;19.85;;;1.42;;
60704;SDS011;46545;38.014;-7.874;2023-02-26T02:36:14;1.15;;;0.77;;
60704;SDS011;46545;38.014;-7.874;2023-02-26T02:38:20;5.63;;;1.02;;
60704;SDS011;46545;38.014;-7.874;2023-02-26T02:40:24;10.20;;;1.85;;
60704;SDS011;46545;38.014;-7.874;2023-02-26T02:43:26;11.57;;;2.97;;
60704;SDS011;46545;38.014;-7.874;2023-02-26T02:44:57;10.43;;;2.08;;
60704;SDS011;46545;38.014;-7.874;2023-02-26T02:46:58;7.38;;;1.52;;
60704;SDS011;46545;38.014;-7.874;2023-02-26T02:49:00;4.53;;;1.05;;
60704;SDS011;46545;38.014;-7.874;2023-02-26T02:51:07;4.22;;;0.90;;
60704;SDS011;46545;38.014;-7.874;2023-02-26T02:55:20;4.72;;;0.85;;
60704;SDS011;46545;38.014;-7.874;2023-02-26T02:57:22;5.47;;;1.08;;
60704;SDS011;46545;38.014;-7.874;2023-02-26T02:59:29;4.13;;;0.93;;
60704;SDS011;46545;38.014;-7.874;2023-02-26T03:01:31;4.00;;;1.40;;
60704;SDS011;46545;38.014;-7.874;2023-02-26T03:05:37;6.28;;;1.08;;
60704;SDS011;46545;38.014;-7.874;2023-02-26T03:07:39;4.28;;;1.05;;
60704;SDS011;46545;38.014;-7.874;2023-02-26T03:09:42;2.55;;;1.20;;
60704;SDS011;46545;38.014;-7.874;2023-02-26T03:11:45;3.30;;;0.52;;
60704;SDS011;46545;38.014;-7.874;2023-02-26T03:13:46;4.07;;;0.88;;
60704;SDS011;46545;38.014;-7.874;2023-02-26T03:20:28;5.32;;;1.13;;
60704;SDS011;46545;38.014;-7.874;2023-02-26T03:24:59;6.83;;;1.33;;
60704;SDS011;46545;38.014;-7.874;2023-02-26T03:29:08;4.05;;;0.68;;
60704;SDS011;46545;38.014;-7.874;2023-02-26T03:35:22;10.93;;;1.17;;
60704;SDS011;46545;38.014;-7.874;2023-02-26T03:37:28;1.70;;;0.63;;
60704;SDS011;46545;38.014;-7.874;2023-02-26T03:39:44;2.30;;;0.52;;
60704;SDS011;46545;38.014;-7.874;2023-02-26T03:41:48;5.45;;;0.80;;
60704;SDS011;46545;38.014;-7.874;2023-02-26T03:43:54;2.10;;;0.65;;
60704;SDS011;46545;38.014;-7.874;2023-02-26T03:45:57;5.18;;;0.75;;
60704;SDS011;46545;38.014;-7.874;2023-02-26T03:48:01;6.50;;;1.00;;
60704;SDS011;46545;38.014;-7.874;2023-02-26T03:50:07;4.72;;;0.95;;
60704;SDS011;46545;38.014;-7.874;2023-02-26T03:52:21;1.77;;;1.02;;
60704;SDS011;46545;38.014;-7.874;2023-02-26T03:54:48;6.03;;;1.30;;
60704;SDS011;46545;38.014;-7.874;2023-02-26T03:57:09;2.28;;;0.45;;
60704;SDS011;46545;38.014;-7.874;2023-02-26T03:59:45;6.10;;;0.80;;
60704;SDS011;46545;38.014;-7.874;2023-02-26T04:02:18;5.18;;;1.10;;
60704;SDS011;46545;38.014;-7.874;2023-02-26T04:06:29;3.05;;;1.65;;
60704;SDS011;46545;38.014;-7.874;2023-02-26T04:08:30;2.92;;;1.50;;
60704;SDS011;46545;38.014;-7.874;2023-02-26T04:11:17;2.00;;;0.93;;
60704;SDS011;46545;38.014;-7.874;2023-02-26T04:12:52;4.38;;;1.02;;
60704;SDS011;46545;38.014;-7.874;2023-02-26T04:14:53;6.47;;;0.98;;
60704;SDS011;46545;38.014;-7.874;2023-02-26T04:16:54;8.20;;;1.13;;
60704;SDS011;46545;38.014;-7.874;2023-02-26T04:18:55;2.15;;;0.93;;
60704;SDS011;46545;38.014;-7.874;2023-02-26T04:20:56;3.38;;;1.00;;
60704;SDS011;46545;38.014;-7.874;2023-02-26T04:22:56;3.22;;;1.00;;
60704;SDS011;46545;38.014;-7.874;2023-02-26T04:24:57;6.45;;;1.40;;
60704;SDS011;46545;38.014;-7.874;2023-02-26T04:26:57;8.35;;;2.80;;
60704;SDS011;46545;38.014;-7.874;2023-02-26T04:28:58;11.45;;;2.40;;
60704;SDS011;46545;38.014;-7.874;2023-02-26T04:30:59;7.45;;;2.85;;
60704;SDS011;46545;38.014;-7.874;2023-02-26T04:33:00;4.40;;;1.13;;
60704;SDS011;46545;38.014;-7.874;2023-02-26T04:35:00;5.10;;;1.20;;
60704;SDS011;46545;38.014;-7.874;2023-02-26T04:37:02;10.35;;;1.67;;
60704;SDS011;46545;38.014;-7.874;2023-02-26T04:39:02;4.93;;;1.35;;
60704;SDS011;46545;38.014;-7.874;2023-02-26T04:41:04;4.10;;;1.30;;
60704;SDS011;46545;38.014;-7.874;2023-02-26T04:43:05;3.60;;;1.65;;
60704;SDS011;46545;38.014;-7.874;2023-02-26T04:45:10;4.47;;;1.63;;
60704;SDS011;46545;38.014;-7.874;2023-02-26T04:47:12;7.32;;;2.25;;
60704;SDS011;46545;38.014;-7.874;2023-02-26T04:49:13;7.28;;;1.60;;
60704;SDS011;46545;38.014;-7.874;2023-02-26T04:51:18;6.35;;;1.38;;
60704;SDS011;46545;38.014;-7.874;2023-02-26T04:53:19;5.45;;;1.58;;
60704;SDS011;46545;38.014;-7.874;2023-02-26T04:55:19;8.77;;;3.33;;
60704;SDS011;46545;38.014;-7.874;2023-02-26T04:57:20;7.88;;;2.72;;
60704;SDS011;46545;38.014;-7.874;2023-02-26T04:59:21;6.40;;;1.88;;
60704;SDS011;46545;38.014;-7.874;2023-02-26T05:01:22;7.57;;;2.47;;
60704;SDS011;46545;38.014;-7.874;2023-02-26T05:03:22;8.38;;;2.83;;
60704;SDS011;46545;38.014;-7.874;2023-02-26T05:05:23;8.48;;;2.97;;
60704;SDS011;46545;38.014;-7.874;2023-02-26T05:07:23;6.47;;;2.75;;
60704;SDS011;46545;38.014;-7.874;2023-02-26T05:09:24;11.63;;;2.78;;
60704;SDS011;46545;38.014;-7.874;2023-02-26T05:11:24;4.10;;;2.20;;
60704;SDS011;46545;38.014;-7.874;2023-02-26T05:13:25;7.82;;;2.47;;
60704;SDS011;46545;38.014;-7.874;2023-02-26T05:15:26;4.25;;;1.52;;
60704;SDS011;46545;38.014;-7.874;2023-02-26T05:17:27;6.50;;;1.42;;
60704;SDS011;46545;38.014;-7.874;2023-02-26T05:19:27;3.20;;;1.20;;
60704;SDS011;46545;38.014;-7.874;2023-02-26T05:21:28;3.25;;;1.25;;
60704;SDS011;46545;38.014;-7.874;2023-02-26T05:23:30;6.05;;;1.42;;
60704;SDS011;46545;38.014;-7.874;2023-02-26T05:25:31;2.17;;;1.30;;
60704;SDS011;46545;38.014;-7.874;2023-02-26T05:27:32;3.30;;;1.40;;
60704;SDS011;46545;38.014;-7.874;2023-02-26T05:29:32;5.65;;;1.88;;
60704;SDS011;46545;38.014;-7.874;2023-02-26T05:31:35;4.15;;;1.42;;
60704;SDS011;46545;38.014;-7.874;2023-02-26T05:33:35;5.40;;;2.03;;
60704;SDS011;46545;38.014;-7.874;2023-02-26T05:35:37;5.78;;;1.80;;
60704;SDS011;46545;38.014;-7.874;2023-02-26T05:37:39;6.47;;;2.13;;
60704;SDS011;46545;38.014;-7.874;2023-02-26T05:39:39;4.80;;;2.10;;
60704;SDS011;46545;38.014;-7.874;2023-02-26T05:41:43;6.75;;;2.20;;
60704;SDS011;46545;38.014;-7.874;2023-02-26T05:43:45;9.30;;;2.83;;
60704;SDS011;46545;38.014;-7.874;2023-02-26T05:45:45;7.20;;;2.67;;
60704;SDS011;46545;38.014;-7.874;2023-02-26T05:47:48;14.18;;;3.80;;
60704;SDS011;46545;38.014;-7.874;2023-02-26T05:49:49;10.65;;;2.90;;
60704;SDS011;46545;38.014;-7.874;2023-02-26T05:51:49;9.93;;;3.45;;
60704;SDS011;46545;38.014;-7.874;2023-02-26T05:53:50;9.32;;;2.47;;
60704;SDS011;46545;38.014;-7.874;2023-02-26T05:55:51;15.00;;;2.67;;
60704;SDS011;46545;38.014;-7.874;2023-02-26T05:57:52;13.50;;;2.92;;
60704;SDS011;46545;38.014;-7.874;2023-02-26T05:59:53;6.90;;;2.80;;
60704;SDS011;46545;38.014;-7.874;2023-02-26T06:01:53;4.10;;;1.90;;
60704;SDS011;46545;38.014;-7.874;2023-02-26T06:03:53;6.95;;;1.95;;
60704;SDS011;46545;38.014;-7.874;2023-02-26T06:05:54;4.28;;;2.10;;
60704;SDS011;46545;38.014;-7.874;2023-02-26T06:07:54;12.73;;;2.50;;
60704;SDS011;46545;38.014;-7.874;2023-02-26T06:09:55;3.00;;;1.70;;
60704;SDS011;46545;38.014;-7.874;2023-02-26T06:11:56;6.45;;;1.88;;
60704;SDS011;46545;38.014;-7.874;2023-02-26T06:13:56;4.13;;;1.52;;
60704;SDS011;46545;38.014;-7.874;2023-02-26T06:15:57;6.13;;;2.03;;
60704;SDS011;46545;38.014;-7.874;2023-02-26T06:17:57;4.53;;;2.05;;
60704;SDS011;46545;38.014;-7.874;2023-02-26T06:19:58;6.68;;;1.60;;
60704;SDS011;46545;38.014;-7.874;2023-02-26T06:21:58;4.40;;;1.35;;
60704;SDS011;46545;38.014;-7.874;2023-02-26T06:23:59;2.75;;;0.85;;
60704;SDS011;46545;38.014;-7.874;2023-02-26T06:25:59;6.53;;;1.00;;
60704;SDS011;46545;38.014;-7.874;2023-02-26T06:27:59;1.60;;;0.98;;
60704;SDS011;46545;38.014;-7.874;2023-02-26T06:30:00;5.95;;;1.08;;
60704;SDS011;46545;38.014;-7.874;2023-02-26T06:32:00;6.10;;;0.98;;
60704;SDS011;46545;38.014;-7.874;2023-02-26T06:34:01;4.65;;;1.00;;
60704;SDS011;46545;38.014;-7.874;2023-02-26T06:36:01;5.72;;;0.98;;
60704;SDS011;46545;38.014;-7.874;2023-02-26T06:38:02;4.35;;;1.10;;
60704;SDS011;46545;38.014;-7.874;2023-02-26T06:40:03;2.65;;;0.85;;
60704;SDS011;46545;38.014;-7.874;2023-02-26T06:42:03;3.45;;;1.10;;
60704;SDS011;46545;38.014;-7.874;2023-02-26T06:44:04;4.68;;;1.15;;
60704;SDS011;46545;38.014;-7.874;2023-02-26T06:46:04;4.80;;;0.93;;
60704;SDS011;46545;38.014;-7.874;2023-02-26T06:48:05;3.45;;;1.00;;
60704;SDS011;46545;38.014;-7.874;2023-02-26T06:50:06;6.10;;;1.98;;
60704;SDS011;46545;38.014;-7.874;2023-02-26T06:52:07;3.25;;;1.67;;
60704;SDS011;46545;38.014;-7.874;2023-02-26T06:54:07;11.90;;;1.95;;
60704;SDS011;46545;38.014;-7.874;2023-02-26T06:56:08;4.18;;;1.67;;
60704;SDS011;46545;38.014;-7.874;2023-02-26T06:58:08;8.27;;;1.40;;
60704;SDS011;46545;38.014;-7.874;2023-02-26T07:00:09;3.05;;;1.50;;
60704;SDS011;46545;38.014;-7.874;2023-02-26T07:02:14;5.82;;;1.63;;
60704;SDS011;46545;38.014;-7.874;2023-02-26T07:04:15;5.85;;;1.35;;
60704;SDS011;46545;38.014;-7.874;2023-02-26T07:06:16;4.68;;;1.55;;
60704;SDS011;46545;38.014;-7.874;2023-02-26T07:08:16;10.18;;;2.03;;
60704;SDS011;46545;38.014;-7.874;2023-02-26T07:10:17;1.33;;;1.10;;
60704;SDS011;46545;38.014;-7.874;2023-02-26T07:12:17;2.85;;;1.48;;
60704;SDS011;46545;38.014;-7.874;2023-02-26T07:14:18;5.72;;;1.58;;
60704;SDS011;46545;38.014;-7.874;2023-02-26T07:16:18;4.32;;;1.50;;
60704;SDS011;46545;38.014;-7.874;2023-02-26T07:18:19;5.30;;;1.80;;
60704;SDS011;46545;38.014;-7.874;2023-02-26T07:20:19;5.45;;;1.85;;
60704;SDS011;46545;38.014;-7.874;2023-02-26T07:22:19;5.13;;;1.73;;
60704;SDS011;46545;38.014;-7.874;2023-02-26T07:24:20;5.93;;;1.60;;
60704;SDS011;46545;38.014;-7.874;2023-02-26T07:26:21;6.13;;;2.00;;
60704;SDS011;46545;38.014;-7.874;2023-02-26T07:28:22;2.92;;;1.77;;
60704;SDS011;46545;38.014;-7.874;2023-02-26T07:30:23;6.22;;;2.17;;
60704;SDS011;46545;38.014;-7.874;2023-02-26T07:32:23;7.93;;;2.15;;
60704;SDS011;46545;38.014;-7.874;2023-02-26T07:34:24;5.00;;;2.47;;
60704;SDS011;46545;38.014;-7.874;2023-02-26T07:36:24;6.20;;;2.10;;
60704;SDS011;46545;38.014;-7.874;2023-02-26T07:38:24;9.60;;;2.00;;
60704;SDS011;46545;38.014;-7.874;2023-02-26T07:40:25;3.55;;;1.70;;
60704;SDS011;46545;38.014;-7.874;2023-02-26T07:42:25;5.75;;;2.08;;
60704;SDS011;46545;38.014;-7.874;2023-02-26T07:44:26;3.47;;;1.92;;
60704;SDS011;46545;38.014;-7.874;2023-02-26T07:46:27;6.03;;;2.30;;
60704;SDS011;46545;38.014;-7.874;2023-02-26T07:48:27;7.15;;;2.58;;
60704;SDS011;46545;38.014;-7.874;2023-02-26T07:50:28;6.95;;;3.00;;
60704;SDS011;46545;38.014;-7.874;2023-02-26T07:52:29;4.28;;;2.65;;
60704;SDS011;46545;38.014;-7.874;2023-02-26T07:54:29;7.72;;;3.10;;
60704;SDS011;46545;38.014;-7.874;2023-02-26T07:56:30;10.02;;;3.47;;
60704;SDS011;46545;38.014;-7.874;2023-02-26T07:58:30;4.95;;;2.38;;
60704;SDS011;46545;38.014;-7.874;2023-02-26T08:00:31;3.97;;;2.15;;
60704;SDS011;46545;38.014;-7.874;2023-02-26T08:02:32;6.07;;;2.80;;
60704;SDS011;46545;38.014;-7.874;2023-02-26T08:04:32;7.68;;;3.17;;
60704;SDS011;46545;38.014;-7.874;2023-02-26T08:06:33;6.22;;;3.20;;
60704;SDS011;46545;38.014;-7.874;2023-02-26T08:08:34;5.68;;;2.72;;
60704;SDS011;46545;38.014;-7.874;2023-02-26T08:10:35;6.65;;;3.08;;
60704;SDS011;46545;38.014;-7.874;2023-02-26T08:12:35;5.07;;;2.67;;
60704;SDS011;46545;38.014;-7.874;2023-02-26T08:14:36;8.55;;;2.95;;
60704;SDS011;46545;38.014;-7.874;2023-02-26T08:16:36;4.03;;;2.40;;
60704;SDS011;46545;38.014;-7.874;2023-02-26T08:18:36;4.25;;;2.33;;
60704;SDS011;46545;38.014;-7.874;2023-02-26T08:20:37;4.70;;;2.90;;
60704;SDS011;46545;38.014;-7.874;2023-02-26T08:22:37;2.80;;;1.80;;
60704;SDS011;46545;38.014;-7.874;2023-02-26T08:24:38;7.78;;;3.85;;
60704;SDS011;46545;38.014;-7.874;2023-02-26T08:26:38;6.07;;;4.00;;
60704;SDS011;46545;38.014;-7.874;2023-02-26T08:28:39;4.72;;;3.60;;
60704;SDS011;46545;38.014;-7.874;2023-02-26T08:30:39;3.72;;;2.30;;
60704;SDS011;46545;38.014;-7.874;2023-02-26T08:32:40;6.35;;;2.45;;
60704;SDS011;46545;38.014;-7.874;2023-02-26T08:34:41;7.25;;;3.15;;
60704;SDS011;46545;38.014;-7.874;2023-02-26T08:36:41;9.13;;;3.33;;
60704;SDS011;46545;38.014;-7.874;2023-02-26T08:38:42;5.57;;;3.63;;
60704;SDS011;46545;38.014;-7.874;2023-02-26T08:40:42;5.40;;;3.60;;
60704;SDS011;46545;38.014;-7.874;2023-02-26T08:42:43;8.73;;;3.88;;
60704;SDS011;46545;38.014;-7.874;2023-02-26T08:44:43;5.50;;;3.95;;
60704;SDS011;46545;38.014;-7.874;2023-02-26T08:46:44;8.40;;;5.10;;
60704;SDS011;46545;38.014;-7.874;2023-02-26T08:48:45;7.53;;;5.68;;
60704;SDS011;46545;38.014;-7.874;2023-02-26T08:50:45;13.45;;;6.65;;
60704;SDS011;46545;38.014;-7.874;2023-02-26T08:52:45;10.50;;;9.38;;
60704;SDS011;46545;38.014;-7.874;2023-02-26T08:54:46;12.35;;;9.30;;
60704;SDS011;46545;38.014;-7.874;2023-02-26T08:56:46;14.00;;;10.18;;
60704;SDS011;46545;38.014;-7.874;2023-02-26T08:58:47;10.85;;;9.57;;
60704;SDS011;46545;38.014;-7.874;2023-02-26T09:00:48;12.68;;;10.60;;
60704;SDS011;46545;38.014;-7.874;2023-02-26T09:02:48;12.20;;;10.43;;
60704;SDS011;46545;38.014;-7.874;2023-02-26T09:04:49;12.45;;;7.53;;
60704;SDS011;46545;38.014;-7.874;2023-02-26T09:06:49;9.13;;;6.03;;
60704;SDS011;46545;38.014;-7.874;2023-02-26T09:08:51;7.93;;;6.68;;
60704;SDS011;46545;38.014;-7.874;2023-02-26T09:10:52;8.68;;;6.90;;
60704;SDS011;46545;38.014;-7.874;2023-02-26T09:12:52;11.35;;;7.22;;
60704;SDS011;46545;38.014;-7.874;2023-02-26T09:14:53;17.08;;;8.02;;
60704;SDS011;46545;38.014;-7.874;2023-02-26T09:16:53;10.13;;;7.25;;
60704;SDS011;46545;38.014;-7.874;2023-02-26T09:18:54;12.38;;;7.40;;
60704;SDS011;46545;38.014;-7.874;2023-02-26T09:20:54;12.82;;;9.30;;
60704;SDS011;46545;38.014;-7.874;2023-02-26T09:22:55;10.50;;;6.50;;
60704;SDS011;46545;38.014;-7.874;2023-02-26T09:24:55;8.93;;;7.88;;
60704;SDS011;46545;38.014;-7.874;2023-02-26T09:26:56;7.95;;;7.00;;
60704;SDS011;46545;38.014;-7.874;2023-02-26T09:28:56;7.97;;;6.07;;
60704;SDS011;46545;38.014;-7.874;2023-02-26T09:30:57;7.97;;;5.05;;
60704;SDS011;46545;38.014;-7.874;2023-02-26T09:32:57;13.98;;;6.03;;
60704;SDS011;46545;38.014;-7.874;2023-02-26T09:34:58;8.23;;;6.25;;
60704;SDS011;46545;38.014;-7.874;2023-02-26T09:36:58;12.13;;;5.93;;
60704;SDS011;46545;38.014;-7.874;2023-02-26T09:38:59;12.80;;;9.00;;
60704;SDS011;46545;38.014;-7.874;2023-02-26T09:43:12;15.80;;;7.90;;
60704;SDS011;46545;38.014;-7.874;2023-02-26T09:45:21;12.93;;;6.90;;
60704;SDS011;46545;38.014;-7.874;2023-02-26T09:47:38;13.90;;;6.22;;
60704;SDS011;46545;38.014;-7.874;2023-02-26T09:51:41;21.83;;;10.15;;
60704;SDS011;46545;38.014;-7.874;2023-02-26T09:53:42;15.65;;;9.25;;
60704;SDS011;46545;38.014;-7.874;2023-02-26T09:55:44;13.65;;;8.32;;
60704;SDS011;46545;38.014;-7.874;2023-02-26T09:57:46;15.27;;;6.90;;
60704;SDS011;46545;38.014;-7.874;2023-02-26T09:59:47;14.05;;;4.97;;
60704;SDS011;46545;38.014;-7.874;2023-02-26T10:01:54;10.00;;;3.22;;
60704;SDS011;46545;38.014;-7.874;2023-02-26T10:08:25;7.22;;;3.00;;
60704;SDS011;46545;38.014;-7.874;2023-02-26T10:12:41;5.13;;;2.03;;
60704;SDS011;46545;38.014;-7.874;2023-02-26T10:16:46;6.80;;;2.70;;
60704;SDS011;46545;38.014;-7.874;2023-02-26T10:18:55;7.03;;;2.67;;
60704;SDS011;46545;38.014;-7.874;2023-02-26T10:21:16;10.15;;;3.35;;
60704;SDS011;46545;38.014;-7.874;2023-02-26T10:25:21;8.32;;;2.15;;
60704;SDS011;46545;38.014;-7.874;2023-02-26T10:27:23;7.03;;;2.75;;
60704;SDS011;46545;38.014;-7.874;2023-02-26T10:29:37;5.53;;;2.47;;
60704;SDS011;46545;38.014;-7.874;2023-02-26T10:31:56;3.83;;;2.15;;
60704;SDS011;46545;38.014;-7.874;2023-02-26T10:34:03;3.80;;;1.38;;
60704;SDS011;46545;38.014;-7.874;2023-02-26T10:36:15;3.28;;;1.70;;
60704;SDS011;46545;38.014;-7.874;2023-02-26T10:38:17;2.80;;;1.60;;
60704;SDS011;46545;38.014;-7.874;2023-02-26T10:40:19;2.33;;;1.20;;
60704;SDS011;46545;38.014;-7.874;2023-02-26T10:42:26;3.40;;;1.08;;
60704;SDS011;46545;38.014;-7.874;2023-02-26T10:44:38;1.58;;;0.82;;
60704;SDS011;46545;38.014;-7.874;2023-02-26T10:46:51;3.63;;;0.98;;
60704;SDS011;46545;38.014;-7.874;2023-02-26T10:49:41;3.17;;;1.00;;
60704;SDS011;46545;38.014;-7.874;2023-02-26T10:51:16;5.63;;;1.20;;
60704;SDS011;46545;38.014;-7.874;2023-02-26T10:53:17;3.22;;;0.98;;
60704;SDS011;46545;38.014;-7.874;2023-02-26T10:55:36;1.27;;;0.73;;
60704;SDS011;46545;38.014;-7.874;2023-02-26T10:57:39;1.63;;;1.00;;
60704;SDS011;46545;38.014;-7.874;2023-02-26T10:59:41;0.98;;;0.50;;
60704;SDS011;46545;38.014;-7.874;2023-02-26T11:01:41;1.88;;;0.63;;
60704;SDS011;46545;38.014;-7.874;2023-02-26T11:03:43;7.43;;;0.70;;
60704;SDS011;46545;38.014;-7.874;2023-02-26T11:05:45;0.50;;;0.30;;
60704;SDS011;46545;38.014;-7.874;2023-02-26T11:07:47;0.85;;;0.40;;
60704;SDS011;46545;38.014;-7.874;2023-02-26T11:09:48;0.20;;;0.20;;
60704;SDS011;46545;38.014;-7.874;2023-02-26T11:11:53;2.13;;;0.55;;
60704;SDS011;46545;38.014;-7.874;2023-02-26T11:13:54;0.52;;;0.38;;
60704;SDS011;46545;38.014;-7.874;2023-02-26T11:15:57;0.88;;;0.40;;
60704;SDS011;46545;38.014;-7.874;2023-02-26T11:17:57;1.40;;;0.32;;
60704;SDS011;46545;38.014;-7.874;2023-02-26T11:20:03;1.85;;;0.57;;
60704;SDS011;46545;38.014;-7.874;2023-02-26T11:22:04;0.90;;;0.50;;
60704;SDS011;46545;38.014;-7.874;2023-02-26T11:26:16;1.58;;;0.63;;
60704;SDS011;46545;38.014;-7.874;2023-02-26T11:28:30;0.82;;;0.73;;
60704;SDS011;46545;38.014;-7.874;2023-02-26T11:30:35;1.70;;;0.90;;
60704;SDS011;46545;38.014;-7.874;2023-02-26T11:32:36;1.98;;;0.80;;
60704;SDS011;46545;38.014;-7.874;2023-02-26T11:34:37;3.60;;;1.00;;
60704;SDS011;46545;38.014;-7.874;2023-02-26T11:36:41;2.80;;;0.73;;
60704;SDS011;46545;38.014;-7.874;2023-02-26T11:38:44;1.25;;;0.60;;
60704;SDS011;46545;38.014;-7.874;2023-02-26T11:40:46;0.60;;;0.30;;
60704;SDS011;46545;38.014;-7.874;2023-02-26T11:42:55;1.80;;;0.80;;
60704;SDS011;46545;38.014;-7.874;2023-02-26T11:44:56;0.77;;;0.63;;
60704;SDS011;46545;38.014;-7.874;2023-02-26T11:46:57;3.70;;;0.60;;
60704;SDS011;46545;38.014;-7.874;2023-02-26T11:48:59;2.60;;;0.63;;
60704;SDS011;46545;38.014;-7.874;2023-02-26T11:51:01;1.50;;;0.75;;
60704;SDS011;46545;38.014;-7.874;2023-02-26T11:53:04;1.80;;;0.60;;
60704;SDS011;46545;38.014;-7.874;2023-02-26T11:55:14;2.67;;;1.23;;
60704;SDS011;46545;38.014;-7.874;2023-02-26T11:57:17;2.60;;;0.98;;
60704;SDS011;46545;38.014;-7.874;2023-02-26T11:59:19;3.38;;;1.00;;
60704;SDS011;46545;38.014;-7.874;2023-02-26T12:01:20;3.08;;;1.70;;
60704;SDS011;46545;38.014;-7.874;2023-02-26T12:03:26;2.15;;;1.42;;
60704;SDS011;46545;38.014;-7.874;2023-02-26T12:05:30;3.78;;;2.45;;
60704;SDS011;46545;38.014;-7.874;2023-02-26T12:07:31;3.38;;;2.00;;
60704;SDS011;46545;38.014;-7.874;2023-02-26T12:09:31;3.17;;;1.90;;
60704;SDS011;46545;38.014;-7.874;2023-02-26T12:20:02;3.42;;;1.85;;
60704;SDS011;46545;38.014;-7.874;2023-02-26T12:23:19;3.90;;;1.95;;
60704;SDS011;46545;38.014;-7.874;2023-02-26T12:27:22;4.35;;;2.35;;
60704;SDS011;46545;38.014;-7.874;2023-02-26T12:31:36;6.22;;;2.15;;
60704;SDS011;46545;38.014;-7.874;2023-02-26T12:42:10;1.23;;;0.30;;
60704;SDS011;46545;38.014;-7.874;2023-02-26T12:44:40;2.85;;;0.38;;
60704;SDS011;46545;38.014;-7.874;2023-02-26T12:47:21;1.58;;;0.25;;
60704;SDS011;46545;38.014;-7.874;2023-02-26T12:56:20;2.30;;;0.85;;
60704;SDS011;46545;38.014;-7.874;2023-02-26T13:00:58;0.80;;;0.40;;
60704;SDS011;46545;38.014;-7.874;2023-02-26T13:03:09;0.35;;;0.15;;
60704;SDS011;46545;38.014;-7.874;2023-02-26T13:14:25;1.02;;;0.52;;
60704;SDS011;46545;38.014;-7.874;2023-02-26T13:17:02;2.17;;;0.50;;
60704;SDS011;46545;38.014;-7.874;2023-02-26T13:18:58;0.80;;;0.40;;
60704;SDS011;46545;38.014;-7.874;2023-02-26T13:21:03;1.42;;;0.68;;
60704;SDS011;46545;38.014;-7.874;2023-02-26T13:23:12;1.30;;;0.68;;
60704;SDS011;46545;38.014;-7.874;2023-02-26T13:25:21;2.28;;;0.90;;
60704;SDS011;46545;38.014;-7.874;2023-02-26T13:27:24;2.72;;;0.70;;
60704;SDS011;46545;38.014;-7.874;2023-02-26T13:29:34;2.60;;;1.05;;
60704;SDS011;46545;38.014;-7.874;2023-02-26T13:31:47;0.57;;;0.30;;
60704;SDS011;46545;38.014;-7.874;2023-02-26T13:33:49;4.07;;;0.75;;
60704;SDS011;46545;38.014;-7.874;2023-02-26T13:35:51;2.58;;;0.47;;
60704;SDS011;46545;38.014;-7.874;2023-02-26T13:37:53;2.38;;;0.68;;
60704;SDS011;46545;38.014;-7.874;2023-02-26T13:44:26;0.57;;;0.22;;
60704;SDS011;46545;38.014;-7.874;2023-02-26T13:48:51;0.90;;;0.40;;
60704;SDS011;46545;38.014;-7.874;2023-02-26T13:50:55;1.50;;;0.60;;
60704;SDS011;46545;38.014;-7.874;2023-02-26T13:53:00;3.33;;;1.27;;
60704;SDS011;46545;38.014;-7.874;2023-02-26T13:55:03;1.40;;;0.57;;
60704;SDS011;46545;38.014;-7.874;2023-02-26T13:57:22;2.28;;;0.65;;
60704;SDS011;46545;38.014;-7.874;2023-02-26T14:04:05;1.13;;;0.75;;
60704;SDS011;46545;38.014;-7.874;2023-02-26T14:06:07;0.50;;;0.20;;
60704;SDS011;46545;38.014;-7.874;2023-02-26T14:10:17;0.28;;;0.20;;
60704;SDS011;46545;38.014;-7.874;2023-02-26T14:12:33;2.05;;;0.70;;
60704;SDS011;46545;38.014;-7.874;2023-02-26T14:14:35;0.50;;;0.30;;
60704;SDS011;46545;38.014;-7.874;2023-02-26T14:16:37;0.80;;;0.30;;
60704;SDS011;46545;38.014;-7.874;2023-02-26T14:23:35;2.42;;;0.65;;
60704;SDS011;46545;38.014;-7.874;2023-02-26T14:25:37;1.00;;;0.45;;
60704;SDS011;46545;38.014;-7.874;2023-02-26T14:27:39;0.90;;;0.70;;
60704;SDS011;46545;38.014;-7.874;2023-02-26T14:31:50;1.73;;;0.40;;